sensor_id;sensor_type;location;lat;lon;timestamp;P1;durP1;ratioP1;P2;durP2;ratioP2
26620;SDS011;14253;44.840;10.444;2022-10-26T00:00:37;27.05;;;16.30;;
26620;SDS011;14253;44.840;10.444;2022-10-26T00:03:03;33.28;;;19.00;;
26620;SDS011;14253;44.840;10.444;2022-10-26T00:05:30;30.45;;;17.40;;
26620;SDS011;14253;44.840;10.444;2022-10-26T00:07:57;28.67;;;16.30;;
26620;SDS011;14253;44.840;10.444;2022-10-26T00:10:23;37.30;;;17.95;;
26620;SDS011;14253;44.840;10.444;2022-10-26T00:12:50;28.10;;;16.77;;
26620;SDS011;14253;44.840;10.444;2022-10-26T00:15:19;29.52;;;15.98;;
26620;SDS011;14253;44.840;10.444;2022-10-26T00:17:46;26.30;;;15.40;;
26620;SDS011;14253;44.840;10.444;2022-10-26T00:20:13;29.17;;;15.57;;
26620;SDS011;14253;44.840;10.444;2022-10-26T00:22:39;22.23;;;14.93;;
26620;SDS011;14253;44.840;10.444;2022-10-26T00:25:05;29.90;;;15.88;;
26620;SDS011;14253;44.840;10.444;2022-10-26T00:27:32;27.42;;;16.83;;
26620;SDS011;14253;44.840;10.444;2022-10-26T00:29:59;29.48;;;16.80;;
26620;SDS011;14253;44.840;10.444;2022-10-26T00:32:26;27.45;;;16.17;;
26620;SDS011;14253;44.840;10.444;2022-10-26T00:34:52;29.98;;;15.80;;
26620;SDS011;14253;44.840;10.444;2022-10-26T00:37:18;28.63;;;17.15;;
26620;SDS011;14253;44.840;10.444;2022-10-26T00:39:44;28.42;;;17.13;;
26620;SDS011;14253;44.840;10.444;2022-10-26T00:42:14;26.55;;;16.67;;
26620;SDS011;14253;44.840;10.444;2022-10-26T00:50:03;33.90;;;17.33;;
26620;SDS011;14253;44.840;10.444;2022-10-26T00:52:32;29.00;;;18.13;;
26620;SDS011;14253;44.840;10.444;2022-10-26T00:54:58;30.40;;;17.40;;
26620;SDS011;14253;44.840;10.444;2022-10-26T00:57:24;28.17;;;17.27;;
26620;SDS011;14253;44.840;10.444;2022-10-26T00:59:51;30.63;;;17.27;;
26620;SDS011;14253;44.840;10.444;2022-10-26T01:02:20;32.70;;;17.27;;
26620;SDS011;14253;44.840;10.444;2022-10-26T01:04:46;24.90;;;16.17;;
26620;SDS011;14253;44.840;10.444;2022-10-26T01:07:12;29.95;;;16.00;;
26620;SDS011;14253;44.840;10.444;2022-10-26T01:09:39;40.65;;;18.20;;
26620;SDS011;14253;44.840;10.444;2022-10-26T01:12:06;32.38;;;17.15;;
26620;SDS011;14253;44.840;10.444;2022-10-26T01:14:31;30.63;;;17.33;;
26620;SDS011;14253;44.840;10.444;2022-10-26T01:17:20;32.28;;;17.23;;
26620;SDS011;14253;44.840;10.444;2022-10-26T01:22:49;31.05;;;17.13;;
26620;SDS011;14253;44.840;10.444;2022-10-26T01:25:25;29.92;;;18.10;;
26620;SDS011;14253;44.840;10.444;2022-10-26T01:28:05;27.63;;;17.65;;
26620;SDS011;14253;44.840;10.444;2022-10-26T01:30:53;30.67;;;18.30;;
26620;SDS011;14253;44.840;10.444;2022-10-26T01:36:02;26.70;;;17.52;;
26620;SDS011;14253;44.840;10.444;2022-10-26T01:44:25;28.67;;;17.15;;
26620;SDS011;14253;44.840;10.444;2022-10-26T01:49:25;28.13;;;16.42;;
26620;SDS011;14253;44.840;10.444;2022-10-26T01:51:53;27.95;;;17.77;;
26620;SDS011;14253;44.840;10.444;2022-10-26T01:54:19;28.25;;;18.20;;
26620;SDS011;14253;44.840;10.444;2022-10-26T01:56:55;30.38;;;19.02;;
26620;SDS011;14253;44.840;10.444;2022-10-26T02:00:26;31.30;;;18.63;;
26620;SDS011;14253;44.840;10.444;2022-10-26T02:08:21;30.05;;;17.90;;
26620;SDS011;14253;44.840;10.444;2022-10-26T02:11:22;25.00;;;16.27;;
26620;SDS011;14253;44.840;10.444;2022-10-26T02:16:55;31.85;;;18.70;;
26620;SDS011;14253;44.840;10.444;2022-10-26T02:22:03;29.48;;;16.88;;
26620;SDS011;14253;44.840;10.444;2022-10-26T02:24:46;30.88;;;17.15;;
26620;SDS011;14253;44.840;10.444;2022-10-26T02:27:18;29.27;;;16.90;;
26620;SDS011;14253;44.840;10.444;2022-10-26T02:29:58;32.63;;;18.55;;
26620;SDS011;14253;44.840;10.444;2022-10-26T02:32:28;33.80;;;18.02;;
26620;SDS011;14253;44.840;10.444;2022-10-26T02:34:56;32.83;;;17.40;;
26620;SDS011;14253;44.840;10.444;2022-10-26T02:37:25;30.65;;;16.02;;
26620;SDS011;14253;44.840;10.444;2022-10-26T02:39:54;31.90;;;18.42;;
26620;SDS011;14253;44.840;10.444;2022-10-26T02:42:21;31.60;;;17.23;;
26620;SDS011;14253;44.840;10.444;2022-10-26T02:47:18;26.63;;;17.05;;
26620;SDS011;14253;44.840;10.444;2022-10-26T02:49:45;31.58;;;18.65;;
26620;SDS011;14253;44.840;10.444;2022-10-26T02:55:13;30.73;;;16.67;;
26620;SDS011;14253;44.840;10.444;2022-10-26T02:57:44;30.35;;;18.02;;
26620;SDS011;14253;44.840;10.444;2022-10-26T03:00:16;32.55;;;17.38;;
26620;SDS011;14253;44.840;10.444;2022-10-26T03:02:43;28.23;;;18.00;;
26620;SDS011;14253;44.840;10.444;2022-10-26T03:05:20;29.33;;;16.58;;
26620;SDS011;14253;44.840;10.444;2022-10-26T03:07:52;33.13;;;17.23;;
26620;SDS011;14253;44.840;10.444;2022-10-26T03:10:19;30.42;;;17.75;;
26620;SDS011;14253;44.840;10.444;2022-10-26T03:12:45;33.22;;;18.02;;
26620;SDS011;14253;44.840;10.444;2022-10-26T03:15:11;33.05;;;16.75;;
26620;SDS011;14253;44.840;10.444;2022-10-26T03:17:41;30.27;;;17.65;;
26620;SDS011;14253;44.840;10.444;2022-10-26T03:20:31;27.67;;;16.65;;
26620;SDS011;14253;44.840;10.444;2022-10-26T03:23:16;31.02;;;17.85;;
26620;SDS011;14253;44.840;10.444;2022-10-26T03:25:58;31.10;;;18.55;;
26620;SDS011;14253;44.840;10.444;2022-10-26T03:28:56;32.33;;;18.02;;
26620;SDS011;14253;44.840;10.444;2022-10-26T03:31:47;31.83;;;19.20;;
26620;SDS011;14253;44.840;10.444;2022-10-26T03:34:25;34.50;;;19.10;;
26620;SDS011;14253;44.840;10.444;2022-10-26T03:37:22;31.55;;;18.02;;
26620;SDS011;14253;44.840;10.444;2022-10-26T03:40:03;28.38;;;17.33;;
26620;SDS011;14253;44.840;10.444;2022-10-26T03:42:44;33.25;;;18.33;;
26620;SDS011;14253;44.840;10.444;2022-10-26T03:45:10;34.33;;;18.98;;
26620;SDS011;14253;44.840;10.444;2022-10-26T03:47:46;30.25;;;18.20;;
26620;SDS011;14253;44.840;10.444;2022-10-26T03:52:53;32.95;;;18.40;;
26620;SDS011;14253;44.840;10.444;2022-10-26T03:55:19;31.17;;;16.40;;
26620;SDS011;14253;44.840;10.444;2022-10-26T03:57:45;32.45;;;19.58;;
26620;SDS011;14253;44.840;10.444;2022-10-26T04:00:12;32.90;;;17.75;;
26620;SDS011;14253;44.840;10.444;2022-10-26T04:02:41;30.08;;;18.17;;
26620;SDS011;14253;44.840;10.444;2022-10-26T04:05:11;35.40;;;19.40;;
26620;SDS011;14253;44.840;10.444;2022-10-26T04:07:48;34.42;;;19.85;;
26620;SDS011;14253;44.840;10.444;2022-10-26T04:10:22;34.85;;;19.75;;
26620;SDS011;14253;44.840;10.444;2022-10-26T04:12:49;28.70;;;17.98;;
26620;SDS011;14253;44.840;10.444;2022-10-26T04:15:15;33.60;;;18.20;;
26620;SDS011;14253;44.840;10.444;2022-10-26T04:17:42;33.45;;;19.05;;
26620;SDS011;14253;44.840;10.444;2022-10-26T04:20:08;28.25;;;17.00;;
26620;SDS011;14253;44.840;10.444;2022-10-26T04:22:35;32.50;;;19.17;;
26620;SDS011;14253;44.840;10.444;2022-10-26T04:25:02;32.25;;;18.13;;
26620;SDS011;14253;44.840;10.444;2022-10-26T04:27:31;33.97;;;18.95;;
26620;SDS011;14253;44.840;10.444;2022-10-26T04:29:57;33.28;;;18.20;;
26620;SDS011;14253;44.840;10.444;2022-10-26T04:32:23;39.03;;;18.73;;
26620;SDS011;14253;44.840;10.444;2022-10-26T04:34:49;33.47;;;19.48;;
26620;SDS011;14253;44.840;10.444;2022-10-26T04:37:17;34.33;;;18.25;;
26620;SDS011;14253;44.840;10.444;2022-10-26T04:39:43;35.78;;;19.10;;
26620;SDS011;14253;44.840;10.444;2022-10-26T04:42:09;35.72;;;18.85;;
26620;SDS011;14253;44.840;10.444;2022-10-26T04:44:35;37.28;;;19.55;;
26620;SDS011;14253;44.840;10.444;2022-10-26T04:47:01;37.75;;;21.02;;
26620;SDS011;14253;44.840;10.444;2022-10-26T04:49:27;32.47;;;19.83;;
26620;SDS011;14253;44.840;10.444;2022-10-26T04:51:53;31.17;;;19.63;;
26620;SDS011;14253;44.840;10.444;2022-10-26T04:54:19;37.92;;;20.55;;
26620;SDS011;14253;44.840;10.444;2022-10-26T04:56:45;31.52;;;20.38;;
26620;SDS011;14253;44.840;10.444;2022-10-26T04:59:11;41.72;;;19.58;;
26620;SDS011;14253;44.840;10.444;2022-10-26T05:01:36;33.33;;;19.58;;
26620;SDS011;14253;44.840;10.444;2022-10-26T05:04:02;33.60;;;19.63;;
26620;SDS011;14253;44.840;10.444;2022-10-26T05:06:43;35.88;;;19.13;;
26620;SDS011;14253;44.840;10.444;2022-10-26T05:09:39;34.92;;;19.80;;
26620;SDS011;14253;44.840;10.444;2022-10-26T05:12:24;39.92;;;20.02;;
26620;SDS011;14253;44.840;10.444;2022-10-26T05:14:53;32.25;;;17.58;;
26620;SDS011;14253;44.840;10.444;2022-10-26T05:17:23;33.65;;;19.02;;
26620;SDS011;14253;44.840;10.444;2022-10-26T05:19:50;35.67;;;20.42;;
26620;SDS011;14253;44.840;10.444;2022-10-26T05:22:24;35.95;;;18.65;;
26620;SDS011;14253;44.840;10.444;2022-10-26T05:24:50;33.80;;;18.15;;
26620;SDS011;14253;44.840;10.444;2022-10-26T05:27:16;29.83;;;18.65;;
26620;SDS011;14253;44.840;10.444;2022-10-26T05:29:42;36.03;;;19.98;;
26620;SDS011;14253;44.840;10.444;2022-10-26T05:32:08;30.35;;;17.85;;
26620;SDS011;14253;44.840;10.444;2022-10-26T05:34:34;30.08;;;18.38;;
26620;SDS011;14253;44.840;10.444;2022-10-26T05:37:00;36.63;;;18.70;;
26620;SDS011;14253;44.840;10.444;2022-10-26T05:39:26;34.67;;;19.85;;
26620;SDS011;14253;44.840;10.444;2022-10-26T05:41:52;32.22;;;18.90;;
26620;SDS011;14253;44.840;10.444;2022-10-26T05:44:18;45.00;;;18.80;;
26620;SDS011;14253;44.840;10.444;2022-10-26T05:46:45;35.92;;;18.23;;
26620;SDS011;14253;44.840;10.444;2022-10-26T05:49:11;38.75;;;20.63;;
26620;SDS011;14253;44.840;10.444;2022-10-26T05:51:37;36.75;;;20.83;;
26620;SDS011;14253;44.840;10.444;2022-10-26T05:54:03;33.33;;;19.38;;
26620;SDS011;14253;44.840;10.444;2022-10-26T05:56:34;40.80;;;19.83;;
26620;SDS011;14253;44.840;10.444;2022-10-26T05:59:02;37.78;;;19.20;;
26620;SDS011;14253;44.840;10.444;2022-10-26T06:04:37;38.28;;;20.52;;
26620;SDS011;14253;44.840;10.444;2022-10-26T06:07:12;37.90;;;18.98;;
26620;SDS011;14253;44.840;10.444;2022-10-26T06:09:43;51.70;;;21.33;;
26620;SDS011;14253;44.840;10.444;2022-10-26T06:12:11;54.22;;;23.20;;
26620;SDS011;14253;44.840;10.444;2022-10-26T06:14:37;46.40;;;23.88;;
26620;SDS011;14253;44.840;10.444;2022-10-26T06:17:23;50.35;;;24.17;;
26620;SDS011;14253;44.840;10.444;2022-10-26T06:28:28;31.60;;;17.80;;
26620;SDS011;14253;44.840;10.444;2022-10-26T06:31:01;33.30;;;17.98;;
26620;SDS011;14253;44.840;10.444;2022-10-26T06:33:27;32.28;;;19.30;;
26620;SDS011;14253;44.840;10.444;2022-10-26T06:39:02;34.33;;;18.98;;
26620;SDS011;14253;44.840;10.444;2022-10-26T06:41:32;36.35;;;19.77;;
26620;SDS011;14253;44.840;10.444;2022-10-26T06:43:59;34.35;;;20.60;;
26620;SDS011;14253;44.840;10.444;2022-10-26T06:51:40;31.05;;;17.33;;
26620;SDS011;14253;44.840;10.444;2022-10-26T06:56:54;30.25;;;16.90;;
26620;SDS011;14253;44.840;10.444;2022-10-26T06:59:55;27.27;;;17.42;;
26620;SDS011;14253;44.840;10.444;2022-10-26T07:02:17;30.67;;;17.52;;
26620;SDS011;14253;44.840;10.444;2022-10-26T07:04:43;30.80;;;16.38;;
26620;SDS011;14253;44.840;10.444;2022-10-26T07:07:11;25.02;;;16.73;;
26620;SDS011;14253;44.840;10.444;2022-10-26T07:09:40;27.23;;;16.73;;
26620;SDS011;14253;44.840;10.444;2022-10-26T07:12:06;34.28;;;18.20;;
26620;SDS011;14253;44.840;10.444;2022-10-26T07:14:32;33.60;;;17.92;;
26620;SDS011;14253;44.840;10.444;2022-10-26T07:16:58;33.30;;;19.05;;
26620;SDS011;14253;44.840;10.444;2022-10-26T07:19:24;30.33;;;17.92;;
26620;SDS011;14253;44.840;10.444;2022-10-26T07:21:50;34.47;;;19.13;;
26620;SDS011;14253;44.840;10.444;2022-10-26T07:24:15;38.42;;;19.92;;
26620;SDS011;14253;44.840;10.444;2022-10-26T07:26:42;30.83;;;18.83;;
26620;SDS011;14253;44.840;10.444;2022-10-26T07:29:07;38.78;;;19.52;;
26620;SDS011;14253;44.840;10.444;2022-10-26T07:31:33;34.42;;;19.45;;
26620;SDS011;14253;44.840;10.444;2022-10-26T07:33:59;35.53;;;18.83;;
26620;SDS011;14253;44.840;10.444;2022-10-26T07:36:27;32.92;;;18.92;;
26620;SDS011;14253;44.840;10.444;2022-10-26T07:38:54;35.88;;;17.77;;
26620;SDS011;14253;44.840;10.444;2022-10-26T07:41:20;29.50;;;19.00;;
26620;SDS011;14253;44.840;10.444;2022-10-26T07:43:45;32.58;;;19.02;;
26620;SDS011;14253;44.840;10.444;2022-10-26T07:46:13;31.05;;;19.58;;
26620;SDS011;14253;44.840;10.444;2022-10-26T07:48:40;31.48;;;19.70;;
26620;SDS011;14253;44.840;10.444;2022-10-26T07:51:07;29.55;;;19.33;;
26620;SDS011;14253;44.840;10.444;2022-10-26T07:53:33;34.15;;;18.10;;
26620;SDS011;14253;44.840;10.444;2022-10-26T07:55:59;27.83;;;17.10;;
26620;SDS011;14253;44.840;10.444;2022-10-26T07:58:25;33.03;;;18.48;;
26620;SDS011;14253;44.840;10.444;2022-10-26T08:00:51;34.72;;;16.63;;
26620;SDS011;14253;44.840;10.444;2022-10-26T08:03:18;31.60;;;17.42;;
26620;SDS011;14253;44.840;10.444;2022-10-26T08:05:48;32.00;;;17.13;;
26620;SDS011;14253;44.840;10.444;2022-10-26T08:08:20;30.83;;;16.38;;
26620;SDS011;14253;44.840;10.444;2022-10-26T08:10:46;36.58;;;17.25;;
26620;SDS011;14253;44.840;10.444;2022-10-26T08:13:12;32.35;;;17.58;;
26620;SDS011;14253;44.840;10.444;2022-10-26T08:15:39;31.02;;;17.70;;
26620;SDS011;14253;44.840;10.444;2022-10-26T08:18:05;35.05;;;16.90;;
26620;SDS011;14253;44.840;10.444;2022-10-26T08:20:31;30.88;;;15.82;;
26620;SDS011;14253;44.840;10.444;2022-10-26T08:22:59;30.58;;;15.55;;
26620;SDS011;14253;44.840;10.444;2022-10-26T08:25:26;32.80;;;15.65;;
26620;SDS011;14253;44.840;10.444;2022-10-26T08:27:52;27.00;;;16.02;;
26620;SDS011;14253;44.840;10.444;2022-10-26T08:30:18;29.67;;;16.95;;
26620;SDS011;14253;44.840;10.444;2022-10-26T08:32:44;31.45;;;14.90;;
26620;SDS011;14253;44.840;10.444;2022-10-26T08:35:10;35.03;;;18.88;;
26620;SDS011;14253;44.840;10.444;2022-10-26T08:37:36;31.40;;;16.92;;
26620;SDS011;14253;44.840;10.444;2022-10-26T08:40:03;32.13;;;15.88;;
26620;SDS011;14253;44.840;10.444;2022-10-26T08:42:33;36.38;;;17.17;;
26620;SDS011;14253;44.840;10.444;2022-10-26T08:45:08;31.38;;;17.00;;
26620;SDS011;14253;44.840;10.444;2022-10-26T08:47:44;33.53;;;17.00;;
26620;SDS011;14253;44.840;10.444;2022-10-26T08:50:23;33.65;;;16.60;;
26620;SDS011;14253;44.840;10.444;2022-10-26T08:53:00;34.28;;;17.02;;
26620;SDS011;14253;44.840;10.444;2022-10-26T08:55:39;30.48;;;16.13;;
26620;SDS011;14253;44.840;10.444;2022-10-26T08:58:15;31.63;;;17.63;;
26620;SDS011;14253;44.840;10.444;2022-10-26T09:00:46;37.38;;;19.33;;
26620;SDS011;14253;44.840;10.444;2022-10-26T09:03:14;33.00;;;18.42;;
26620;SDS011;14253;44.840;10.444;2022-10-26T09:05:57;36.38;;;20.75;;
26620;SDS011;14253;44.840;10.444;2022-10-26T09:16:56;29.73;;;20.02;;
26620;SDS011;14253;44.840;10.444;2022-10-26T09:22:19;37.00;;;21.98;;
26620;SDS011;14253;44.840;10.444;2022-10-26T09:27:28;37.35;;;22.05;;
26620;SDS011;14253;44.840;10.444;2022-10-26T09:29:58;34.45;;;20.25;;
26620;SDS011;14253;44.840;10.444;2022-10-26T09:32:30;37.92;;;21.98;;
26620;SDS011;14253;44.840;10.444;2022-10-26T09:35:12;33.92;;;20.20;;
26620;SDS011;14253;44.840;10.444;2022-10-26T09:37:41;39.97;;;21.38;;
26620;SDS011;14253;44.840;10.444;2022-10-26T09:46:07;38.55;;;20.02;;
26620;SDS011;14253;44.840;10.444;2022-10-26T09:48:47;29.85;;;19.80;;
26620;SDS011;14253;44.840;10.444;2022-10-26T09:51:18;36.38;;;21.33;;
26620;SDS011;14253;44.840;10.444;2022-10-26T09:53:44;36.63;;;20.73;;
26620;SDS011;14253;44.840;10.444;2022-10-26T09:56:15;32.03;;;20.15;;
26620;SDS011;14253;44.840;10.444;2022-10-26T09:58:47;30.70;;;20.27;;
26620;SDS011;14253;44.840;10.444;2022-10-26T10:03:46;33.38;;;20.15;;
26620;SDS011;14253;44.840;10.444;2022-10-26T10:06:21;37.88;;;20.08;;
26620;SDS011;14253;44.840;10.444;2022-10-26T10:11:39;32.25;;;19.83;;
26620;SDS011;14253;44.840;10.444;2022-10-26T10:14:08;35.97;;;20.02;;
26620;SDS011;14253;44.840;10.444;2022-10-26T10:17:18;33.47;;;20.83;;
26620;SDS011;14253;44.840;10.444;2022-10-26T10:19:45;35.13;;;21.70;;
26620;SDS011;14253;44.840;10.444;2022-10-26T10:22:16;37.47;;;20.48;;
26620;SDS011;14253;44.840;10.444;2022-10-26T10:24:54;32.92;;;19.50;;
26620;SDS011;14253;44.840;10.444;2022-10-26T10:27:25;34.80;;;21.40;;
26620;SDS011;14253;44.840;10.444;2022-10-26T10:29:53;32.05;;;19.23;;
26620;SDS011;14253;44.840;10.444;2022-10-26T10:32:21;30.75;;;19.25;;
26620;SDS011;14253;44.840;10.444;2022-10-26T10:34:58;32.40;;;20.05;;
26620;SDS011;14253;44.840;10.444;2022-10-26T10:42:38;38.30;;;20.00;;
26620;SDS011;14253;44.840;10.444;2022-10-26T10:45:06;37.50;;;20.88;;
26620;SDS011;14253;44.840;10.444;2022-10-26T10:50:54;35.65;;;20.80;;
26620;SDS011;14253;44.840;10.444;2022-10-26T10:55:54;37.55;;;20.80;;
26620;SDS011;14253;44.840;10.444;2022-10-26T10:58:52;38.83;;;19.17;;
26620;SDS011;14253;44.840;10.444;2022-10-26T11:01:39;34.65;;;18.70;;
26620;SDS011;14253;44.840;10.444;2022-10-26T11:07:12;35.50;;;20.88;;
26620;SDS011;14253;44.840;10.444;2022-10-26T11:09:42;38.47;;;18.55;;
26620;SDS011;14253;44.840;10.444;2022-10-26T11:12:15;37.83;;;20.05;;
26620;SDS011;14253;44.840;10.444;2022-10-26T11:14:47;40.15;;;18.73;;
26620;SDS011;14253;44.840;10.444;2022-10-26T11:19:48;36.35;;;19.77;;
26620;SDS011;14253;44.840;10.444;2022-10-26T11:22:28;35.23;;;19.67;;
26620;SDS011;14253;44.840;10.444;2022-10-26T11:25:12;31.88;;;19.63;;
26620;SDS011;14253;44.840;10.444;2022-10-26T11:27:50;30.67;;;18.50;;
26620;SDS011;14253;44.840;10.444;2022-10-26T11:30:21;29.08;;;17.88;;
26620;SDS011;14253;44.840;10.444;2022-10-26T11:38:01;39.42;;;19.70;;
26620;SDS011;14253;44.840;10.444;2022-10-26T11:43:26;31.30;;;16.30;;
26620;SDS011;14253;44.840;10.444;2022-10-26T11:51:45;31.60;;;18.20;;
26620;SDS011;14253;44.840;10.444;2022-10-26T11:54:33;28.20;;;17.23;;
26620;SDS011;14253;44.840;10.444;2022-10-26T11:57:05;30.05;;;16.10;;
26620;SDS011;14253;44.840;10.444;2022-10-26T11:59:36;34.42;;;17.05;;
26620;SDS011;14253;44.840;10.444;2022-10-26T12:04:41;30.75;;;17.08;;
26620;SDS011;14253;44.840;10.444;2022-10-26T12:07:30;33.67;;;18.55;;
26620;SDS011;14253;44.840;10.444;2022-10-26T12:10:00;36.50;;;18.00;;
26620;SDS011;14253;44.840;10.444;2022-10-26T12:12:31;27.40;;;16.08;;
26620;SDS011;14253;44.840;10.444;2022-10-26T12:15:05;35.95;;;16.35;;
26620;SDS011;14253;44.840;10.444;2022-10-26T12:21:04;30.58;;;14.27;;
26620;SDS011;14253;44.840;10.444;2022-10-26T12:23:51;25.15;;;13.90;;
26620;SDS011;14253;44.840;10.444;2022-10-26T12:26:38;33.92;;;15.13;;
26620;SDS011;14253;44.840;10.444;2022-10-26T12:34:03;30.40;;;13.88;;
26620;SDS011;14253;44.840;10.444;2022-10-26T12:39:30;24.17;;;12.68;;
26620;SDS011;14253;44.840;10.444;2022-10-26T12:44:38;29.52;;;12.05;;
26620;SDS011;14253;44.840;10.444;2022-10-26T12:47:58;19.35;;;11.68;;
26620;SDS011;14253;44.840;10.444;2022-10-26T12:50:40;19.58;;;10.00;;
26620;SDS011;14253;44.840;10.444;2022-10-26T13:00:39;22.88;;;11.52;;
26620;SDS011;14253;44.840;10.444;2022-10-26T13:09:15;23.88;;;8.10;;
26620;SDS011;14253;44.840;10.444;2022-10-26T13:11:46;23.77;;;9.57;;
26620;SDS011;14253;44.840;10.444;2022-10-26T13:14:22;20.48;;;9.63;;
26620;SDS011;14253;44.840;10.444;2022-10-26T13:16:55;17.55;;;9.30;;
26620;SDS011;14253;44.840;10.444;2022-10-26T13:19:22;14.07;;;7.90;;
26620;SDS011;14253;44.840;10.444;2022-10-26T13:21:50;23.38;;;9.75;;
26620;SDS011;14253;44.840;10.444;2022-10-26T13:24:18;20.63;;;8.57;;
26620;SDS011;14253;44.840;10.444;2022-10-26T13:29:30;19.38;;;9.93;;
26620;SDS011;14253;44.840;10.444;2022-10-26T13:31:57;23.98;;;8.27;;
26620;SDS011;14253;44.840;10.444;2022-10-26T13:34:26;23.98;;;8.35;;
26620;SDS011;14253;44.840;10.444;2022-10-26T13:39:34;20.70;;;8.20;;
26620;SDS011;14253;44.840;10.444;2022-10-26T13:42:02;18.27;;;8.52;;
26620;SDS011;14253;44.840;10.444;2022-10-26T13:44:37;20.67;;;7.90;;
26620;SDS011;14253;44.840;10.444;2022-10-26T13:47:07;25.13;;;6.80;;
26620;SDS011;14253;44.840;10.444;2022-10-26T13:49:40;24.80;;;7.13;;
26620;SDS011;14253;44.840;10.444;2022-10-26T13:52:14;21.20;;;7.65;;
26620;SDS011;14253;44.840;10.444;2022-10-26T13:54:47;22.73;;;7.18;;
26620;SDS011;14253;44.840;10.444;2022-10-26T14:00:23;24.05;;;9.80;;
26620;SDS011;14253;44.840;10.444;2022-10-26T14:02:47;19.00;;;7.78;;
26620;SDS011;14253;44.840;10.444;2022-10-26T14:05:16;21.55;;;9.15;;
26620;SDS011;14253;44.840;10.444;2022-10-26T14:07:44;26.13;;;8.82;;
26620;SDS011;14253;44.840;10.444;2022-10-26T14:13:20;17.38;;;8.80;;
26620;SDS011;14253;44.840;10.444;2022-10-26T14:15:50;29.98;;;9.13;;
26620;SDS011;14253;44.840;10.444;2022-10-26T14:18:23;30.70;;;9.40;;
26620;SDS011;14253;44.840;10.444;2022-10-26T14:20:55;14.95;;;7.57;;
26620;SDS011;14253;44.840;10.444;2022-10-26T14:23:28;21.20;;;7.32;;
26620;SDS011;14253;44.840;10.444;2022-10-26T14:26:56;19.63;;;8.43;;
26620;SDS011;14253;44.840;10.444;2022-10-26T14:29:12;17.95;;;7.72;;
26620;SDS011;14253;44.840;10.444;2022-10-26T14:31:41;20.30;;;6.57;;
26620;SDS011;14253;44.840;10.444;2022-10-26T14:34:08;22.80;;;6.97;;
26620;SDS011;14253;44.840;10.444;2022-10-26T14:36:37;15.85;;;6.03;;
26620;SDS011;14253;44.840;10.444;2022-10-26T14:39:11;15.05;;;5.95;;
26620;SDS011;14253;44.840;10.444;2022-10-26T14:44:05;17.17;;;7.32;;
26620;SDS011;14253;44.840;10.444;2022-10-26T14:46:42;17.80;;;7.07;;
26620;SDS011;14253;44.840;10.444;2022-10-26T14:49:14;17.67;;;7.20;;
26620;SDS011;14253;44.840;10.444;2022-10-26T14:51:47;15.90;;;7.30;;
26620;SDS011;14253;44.840;10.444;2022-10-26T14:54:23;25.10;;;8.43;;
26620;SDS011;14253;44.840;10.444;2022-10-26T14:56:51;20.67;;;6.93;;
26620;SDS011;14253;44.840;10.444;2022-10-26T14:59:22;15.38;;;7.25;;
26620;SDS011;14253;44.840;10.444;2022-10-26T15:01:58;24.15;;;7.25;;
26620;SDS011;14253;44.840;10.444;2022-10-26T15:04:55;17.60;;;6.78;;
26620;SDS011;14253;44.840;10.444;2022-10-26T15:07:37;21.38;;;7.43;;
26620;SDS011;14253;44.840;10.444;2022-10-26T15:10:05;29.52;;;8.23;;
26620;SDS011;14253;44.840;10.444;2022-10-26T15:12:51;16.63;;;8.05;;
26620;SDS011;14253;44.840;10.444;2022-10-26T15:15:20;20.83;;;7.60;;
26620;SDS011;14253;44.840;10.444;2022-10-26T15:17:51;23.15;;;7.57;;
26620;SDS011;14253;44.840;10.444;2022-10-26T15:20:21;22.48;;;7.90;;
26620;SDS011;14253;44.840;10.444;2022-10-26T15:22:55;21.42;;;7.75;;
26620;SDS011;14253;44.840;10.444;2022-10-26T15:25:25;20.77;;;7.97;;
26620;SDS011;14253;44.840;10.444;2022-10-26T15:27:53;19.67;;;6.07;;
26620;SDS011;14253;44.840;10.444;2022-10-26T15:30:23;18.05;;;7.93;;
26620;SDS011;14253;44.840;10.444;2022-10-26T15:32:54;20.20;;;8.23;;
26620;SDS011;14253;44.840;10.444;2022-10-26T15:37:49;12.05;;;6.85;;
26620;SDS011;14253;44.840;10.444;2022-10-26T15:40:16;17.00;;;8.13;;
26620;SDS011;14253;44.840;10.444;2022-10-26T15:42:44;14.57;;;8.13;;
26620;SDS011;14253;44.840;10.444;2022-10-26T15:45:17;17.70;;;8.73;;
26620;SDS011;14253;44.840;10.444;2022-10-26T15:47:46;18.73;;;8.25;;
26620;SDS011;14253;44.840;10.444;2022-10-26T15:50:15;26.23;;;10.48;;
26620;SDS011;14253;44.840;10.444;2022-10-26T15:52:43;20.40;;;8.55;;
26620;SDS011;14253;44.840;10.444;2022-10-26T15:55:09;15.07;;;9.45;;
26620;SDS011;14253;44.840;10.444;2022-10-26T15:57:35;30.17;;;10.40;;
26620;SDS011;14253;44.840;10.444;2022-10-26T16:00:03;27.98;;;10.30;;
26620;SDS011;14253;44.840;10.444;2022-10-26T16:02:31;17.95;;;10.27;;
26620;SDS011;14253;44.840;10.444;2022-10-26T16:05:00;21.23;;;10.18;;
26620;SDS011;14253;44.840;10.444;2022-10-26T16:07:26;22.25;;;10.13;;
26620;SDS011;14253;44.840;10.444;2022-10-26T16:09:52;23.60;;;11.18;;
26620;SDS011;14253;44.840;10.444;2022-10-26T16:12:18;24.02;;;10.82;;
26620;SDS011;14253;44.840;10.444;2022-10-26T16:14:47;16.85;;;9.07;;
26620;SDS011;14253;44.840;10.444;2022-10-26T16:18:12;17.52;;;8.45;;
26620;SDS011;14253;44.840;10.444;2022-10-26T16:20:39;24.67;;;8.90;;
26620;SDS011;14253;44.840;10.444;2022-10-26T16:23:07;22.05;;;8.88;;
26620;SDS011;14253;44.840;10.444;2022-10-26T16:25:41;16.27;;;8.95;;
26620;SDS011;14253;44.840;10.444;2022-10-26T16:28:10;16.60;;;7.82;;
26620;SDS011;14253;44.840;10.444;2022-10-26T16:30:38;22.70;;;9.90;;
26620;SDS011;14253;44.840;10.444;2022-10-26T16:33:05;22.40;;;10.05;;
26620;SDS011;14253;44.840;10.444;2022-10-26T16:35:31;22.58;;;9.77;;
26620;SDS011;14253;44.840;10.444;2022-10-26T16:37:57;22.13;;;10.07;;
26620;SDS011;14253;44.840;10.444;2022-10-26T16:40:23;26.50;;;11.13;;
26620;SDS011;14253;44.840;10.444;2022-10-26T16:42:49;23.20;;;10.85;;
26620;SDS011;14253;44.840;10.444;2022-10-26T16:45:15;14.60;;;10.23;;
26620;SDS011;14253;44.840;10.444;2022-10-26T16:47:42;30.35;;;10.45;;
26620;SDS011;14253;44.840;10.444;2022-10-26T16:50:10;17.58;;;9.65;;
26620;SDS011;14253;44.840;10.444;2022-10-26T16:52:37;21.70;;;9.75;;
26620;SDS011;14253;44.840;10.444;2022-10-26T16:55:04;20.73;;;9.35;;
26620;SDS011;14253;44.840;10.444;2022-10-26T16:57:32;23.83;;;10.75;;
26620;SDS011;14253;44.840;10.444;2022-10-26T16:59:59;18.48;;;10.30;;
26620;SDS011;14253;44.840;10.444;2022-10-26T17:02:25;22.50;;;11.63;;
26620;SDS011;14253;44.840;10.444;2022-10-26T17:04:51;28.58;;;11.68;;
26620;SDS011;14253;44.840;10.444;2022-10-26T17:07:17;18.65;;;10.65;;
26620;SDS011;14253;44.840;10.444;2022-10-26T17:09:43;19.90;;;10.38;;
26620;SDS011;14253;44.840;10.444;2022-10-26T17:12:09;19.05;;;10.60;;
26620;SDS011;14253;44.840;10.444;2022-10-26T17:14:36;22.55;;;10.85;;
26620;SDS011;14253;44.840;10.444;2022-10-26T17:17:02;21.60;;;9.93;;